createdAt,value
2022-10-27T00:03:36.204Z,15.35
2022-10-27T00:13:39.801Z,9.38
2022-10-27T00:23:44.824Z,7.80
2022-10-27T00:33:49.839Z,12.50
2022-10-27T00:43:54.165Z,10.02
2022-10-27T00:53:57.314Z,14.13
2022-10-27T01:04:01.643Z,9.65
2022-10-27T01:14:04.896Z,15.23
2022-10-27T01:24:35.683Z,13.70
2022-10-27T01:34:47.500Z,12.38
2022-10-27T01:44:55.248Z,17.33
2022-10-27T01:54:59.629Z,16.88
2022-10-27T02:05:08.376Z,11.50
2022-10-27T02:15:22.376Z,13.00
2022-10-27T02:25:30.819Z,9.83
2022-10-27T02:35:35.714Z,11.98
2022-10-27T02:45:38.833Z,11.80
2022-10-27T02:55:43.146Z,17.35
2022-10-27T03:05:48.277Z,14.27
2022-10-27T03:15:53.413Z,14.70
2022-10-27T03:26:00.102Z,12.27
2022-10-27T03:36:04.794Z,15.82
2022-10-27T03:46:07.946Z,7.13
2022-10-27T03:56:14.513Z,11.23
2022-10-27T04:06:17.425Z,10.75
2022-10-27T04:16:21.849Z,11.38
2022-10-27T04:26:24.857Z,11.03
2022-10-27T04:36:30.385Z,9.70
2022-10-27T04:46:33.492Z,16.58
2022-10-27T04:56:37.762Z,10.43
2022-10-27T05:06:40.708Z,13.73
2022-10-27T05:16:45.005Z,10.73
2022-10-27T05:26:47.902Z,12.77
2022-10-27T05:36:52.243Z,10.52
2022-10-27T05:46:56.782Z,9.57
2022-10-27T05:57:01.049Z,11.65
2022-10-27T06:07:04.101Z,6.47
2022-10-27T06:17:08.443Z,15.43
2022-10-27T06:27:11.499Z,9.35
2022-10-27T06:37:15.850Z,8.18
2022-10-27T06:47:18.818Z,12.07
2022-10-27T07:07:31.039Z,15.20
2022-10-27T07:17:35.343Z,8.57
2022-10-27T07:27:38.283Z,12.60
2022-10-27T07:37:45.184Z,11.38
2022-10-27T07:47:49.615Z,7.78
2022-10-27T08:08:05.448Z,8.23
2022-10-27T08:18:10.984Z,8.30
2022-10-27T08:28:14.784Z,9.65
2022-10-27T08:38:19.743Z,9.33
2022-10-27T08:48:27.048Z,4.50
2022-10-27T08:58:38.480Z,5.68
2022-10-27T09:08:48.675Z,6.30
2022-10-27T09:18:58.424Z,5.88
2022-10-27T09:29:04.623Z,6.35
2022-10-27T09:39:10.096Z,6.30
2022-10-27T09:49:14.489Z,5.13
2022-10-27T10:09:29.195Z,5.47
2022-10-27T10:19:33.741Z,8.70
2022-10-27T10:29:46.449Z,8.05
2022-10-27T10:39:50.778Z,6.38
2022-10-27T10:49:57.594Z,7.88
2022-10-27T11:00:02.475Z,5.22
2022-10-27T11:10:11.476Z,6.22
2022-10-27T11:20:21.971Z,7.35
2022-10-27T11:30:27.974Z,6.65
2022-10-27T11:40:42.907Z,4.47
2022-10-27T11:50:51.858Z,7.15
2022-10-27T12:01:08.645Z,13.38
2022-10-27T12:11:27.507Z,10.45
2022-10-27T12:21:37.532Z,8.73
2022-10-27T12:31:45.341Z,5.53
2022-10-27T12:41:56.815Z,7.40
2022-10-27T12:52:24.251Z,7.40
2022-10-27T13:02:36.522Z,15.20
2022-10-27T13:12:56.555Z,6.75
2022-10-27T13:23:07.168Z,8.75
2022-10-27T13:33:31.644Z,11.25
2022-10-27T13:43:50.128Z,5.22
2022-10-27T13:53:55.659Z,6.13
2022-10-27T14:04:40.159Z,11.30
2022-10-27T14:14:45.311Z,8.98
2022-10-27T14:24:54.029Z,13.60
2022-10-27T14:34:56.951Z,10.00
2022-10-27T14:45:03.896Z,12.63
2022-10-27T14:55:18.409Z,11.32
2022-10-27T15:05:27.771Z,9.32
2022-10-27T15:15:33.342Z,9.35
2022-10-27T15:25:40.498Z,13.48
2022-10-27T15:35:44.824Z,9.35
2022-10-27T15:45:52.486Z,14.37
2022-10-27T15:56:00.902Z,14.90
2022-10-27T16:06:23.313Z,15.95
2022-10-27T16:16:27.354Z,12.30
2022-10-27T16:26:31.830Z,16.50
2022-10-27T16:36:34.930Z,13.80
2022-10-27T16:46:39.271Z,18.93
2022-10-27T16:56:42.182Z,14.40
2022-10-27T17:06:47.068Z,17.55
2022-10-27T17:16:50.226Z,13.88
2022-10-27T17:26:54.494Z,17.95
2022-10-27T17:47:02.243Z,18.85
2022-10-27T18:07:10.852Z,19.30
2022-10-27T18:27:18.057Z,17.75
2022-10-27T18:37:21.074Z,16.20
2022-10-27T18:47:25.358Z,27.55
2022-10-27T18:57:28.435Z,26.77
2022-10-27T19:07:32.777Z,27.73
2022-10-27T19:27:39.930Z,13.82
2022-10-27T19:47:48.836Z,18.80
2022-10-27T19:57:52.021Z,17.00
2022-10-27T20:07:56.746Z,17.03
2022-10-27T20:28:03.891Z,20.92
2022-10-27T20:48:11.791Z,21.25
2022-10-27T20:58:14.738Z,20.25
2022-10-27T21:08:20.919Z,14.73
2022-10-27T21:18:26.565Z,15.13
2022-10-27T21:28:30.909Z,16.47
2022-10-27T21:48:39.090Z,14.90
2022-10-27T22:08:46.903Z,24.92
2022-10-27T22:18:53.758Z,19.80
2022-10-27T22:28:58.041Z,19.05
2022-10-27T22:49:06.094Z,23.52
2022-10-27T23:09:17.391Z,21.25
2022-10-27T23:19:20.361Z,21.85
2022-10-27T23:29:24.621Z,19.58
2022-10-27T23:39:27.519Z,20.23
2022-10-27T23:49:31.749Z,24.42
2022-10-27T23:59:34.824Z,25.63
